createdAt,value
2023-10-23T00:01:39.805Z,19.30
2023-10-23T00:04:12.047Z,17.20
2023-10-23T00:06:45.087Z,18.60
2023-10-23T00:09:17.101Z,16.10
2023-10-23T00:11:48.930Z,16.00
2023-10-23T00:14:20.649Z,14.10
2023-10-23T00:16:52.514Z,13.90
2023-10-23T00:19:24.382Z,12.60
2023-10-23T00:21:56.242Z,13.10
2023-10-23T00:24:28.453Z,12.10
2023-10-23T00:27:00.244Z,11.90
2023-10-23T00:29:32.147Z,11.50
2023-10-23T00:32:04.043Z,10.30
2023-10-23T00:34:35.916Z,9.70
2023-10-23T00:37:07.791Z,10.50
2023-10-23T00:39:39.672Z,10.50
2023-10-23T00:42:11.819Z,10.20
2023-10-23T00:44:43.621Z,9.20
2023-10-23T00:47:17.994Z,11.00
2023-10-23T00:49:49.723Z,10.20
2023-10-23T00:52:21.611Z,10.20
2023-10-23T00:54:53.786Z,10.10
2023-10-23T00:57:25.854Z,9.10
2023-10-23T00:59:57.925Z,10.60
2023-10-23T01:02:29.847Z,9.40
2023-10-23T01:05:02.051Z,10.70
2023-10-23T01:07:33.843Z,12.80
2023-10-23T01:10:06.251Z,12.00
2023-10-23T01:12:38.151Z,13.20
2023-10-23T01:15:11.535Z,13.20
2023-10-23T01:17:43.287Z,14.80
2023-10-23T01:20:16.285Z,15.50
2023-10-23T01:22:48.443Z,15.70
2023-10-23T01:25:20.476Z,17.00
2023-10-23T01:27:52.674Z,17.20
2023-10-23T01:30:24.964Z,18.70
2023-10-23T01:32:56.988Z,18.80
2023-10-23T01:35:29.099Z,18.90
2023-10-23T01:38:00.843Z,19.70
2023-10-23T01:40:32.508Z,20.40
2023-10-23T01:43:04.499Z,20.30
2023-10-23T01:45:36.351Z,18.20
2023-10-23T01:48:09.726Z,20.50
2023-10-23T01:50:41.817Z,18.80
2023-10-23T01:53:13.899Z,18.00
2023-10-23T01:55:45.706Z,18.30
2023-10-23T01:58:17.542Z,18.20
2023-10-23T02:00:49.416Z,15.90
2023-10-23T02:03:21.475Z,15.50
2023-10-23T02:05:54.642Z,15.00
2023-10-23T02:08:26.644Z,15.80
2023-10-23T02:10:58.440Z,16.30
2023-10-23T02:13:30.672Z,15.40
2023-10-23T02:16:02.656Z,14.60
2023-10-23T02:18:34.605Z,15.30
2023-10-23T02:21:06.674Z,15.30
2023-10-23T02:23:53.141Z,16.00
2023-10-23T02:26:26.323Z,16.50
2023-10-23T02:28:58.397Z,16.30
2023-10-23T02:31:30.179Z,16.00
2023-10-23T02:34:01.958Z,14.50
2023-10-23T02:36:33.902Z,14.40
2023-10-23T02:39:06.048Z,13.40
2023-10-23T02:41:37.941Z,13.90
2023-10-23T02:44:10.283Z,14.60
2023-10-23T02:46:42.358Z,15.30
2023-10-23T02:49:14.206Z,14.80
2023-10-23T02:51:46.245Z,15.00
2023-10-23T02:54:18.596Z,13.90
2023-10-23T02:56:50.487Z,13.40
2023-10-23T02:59:22.961Z,13.30
2023-10-23T03:01:55.301Z,13.20
2023-10-23T03:04:27.159Z,13.80
2023-10-23T03:06:59.130Z,14.20
2023-10-23T03:09:30.899Z,14.00
2023-10-23T03:12:03.117Z,15.00
2023-10-23T03:14:35.631Z,14.70
2023-10-23T03:17:07.599Z,14.50
2023-10-23T03:19:39.518Z,15.10
2023-10-23T03:22:11.538Z,15.60
2023-10-23T03:24:43.635Z,15.80
2023-10-23T03:27:15.493Z,16.60
2023-10-23T03:29:47.633Z,15.60
2023-10-23T03:32:19.471Z,15.50
2023-10-23T03:34:51.274Z,17.20
2023-10-23T03:37:22.976Z,15.90
2023-10-23T03:39:54.783Z,16.50
2023-10-23T03:42:26.734Z,17.30
2023-10-23T03:44:58.614Z,24.40
2023-10-23T03:47:30.421Z,19.40
2023-10-23T03:50:02.240Z,23.10
2023-10-23T03:52:34.318Z,22.60
2023-10-23T03:55:07.165Z,23.60
2023-10-23T03:57:39.045Z,22.60
2023-10-23T04:00:12.547Z,25.10
2023-10-23T04:02:44.321Z,24.20
2023-10-23T04:05:16.384Z,23.20
2023-10-23T04:07:48.166Z,23.70
2023-10-23T04:10:20.135Z,23.70
2023-10-23T04:12:52.520Z,23.10
2023-10-23T04:15:24.398Z,23.90
2023-10-23T04:17:56.236Z,23.10
2023-10-23T04:20:28.116Z,23.50
2023-10-23T04:22:59.862Z,22.40
2023-10-23T04:25:31.634Z,22.10
2023-10-23T04:28:04.834Z,22.30
2023-10-23T04:30:36.660Z,21.40
2023-10-23T04:33:08.454Z,21.10
2023-10-23T04:35:40.197Z,21.60
2023-10-23T04:38:12.059Z,21.10
2023-10-23T04:40:45.648Z,21.70
2023-10-23T04:43:17.464Z,13.10
2023-10-23T04:45:50.968Z,20.60
2023-10-23T04:48:23.027Z,20.90
2023-10-23T04:50:59.353Z,21.20
2023-10-23T04:53:31.329Z,19.80
2023-10-23T04:56:05.956Z,19.80
2023-10-23T04:58:37.868Z,21.10
2023-10-23T05:01:18.671Z,21.90
2023-10-23T05:03:52.665Z,20.00
2023-10-23T05:06:28.439Z,21.40
2023-10-23T05:09:00.467Z,21.70
2023-10-23T05:11:32.882Z,20.00
2023-10-23T05:14:05.277Z,19.40
2023-10-23T05:16:37.172Z,21.70
2023-10-23T05:19:09.898Z,23.00
2023-10-23T05:21:41.876Z,20.90
2023-10-23T05:24:14.362Z,21.70
2023-10-23T05:26:46.133Z,23.00
2023-10-23T05:29:17.850Z,21.10
2023-10-23T05:31:49.720Z,23.10
2023-10-23T05:34:21.552Z,23.30
2023-10-23T05:36:53.401Z,22.70
2023-10-23T05:39:25.397Z,24.80
2023-10-23T05:41:57.293Z,22.00
2023-10-23T05:44:29.463Z,26.30
2023-10-23T05:47:01.256Z,23.60
2023-10-23T05:49:35.300Z,30.30
2023-10-23T05:54:37.860Z,28.30
2023-10-23T05:57:09.652Z,25.90
2023-10-23T05:59:41.681Z,25.00
2023-10-23T06:02:15.402Z,23.50
2023-10-23T06:04:47.826Z,28.80
2023-10-23T06:07:19.903Z,29.40
2023-10-23T06:09:53.071Z,27.10
2023-10-23T06:12:25.158Z,28.40
2023-10-23T06:14:58.960Z,29.70
2023-10-23T06:17:30.870Z,30.40
2023-10-23T06:20:04.081Z,31.80
2023-10-23T06:22:36.702Z,33.00
2023-10-23T06:25:09.527Z,31.30
2023-10-23T06:27:41.543Z,31.00
2023-10-23T06:30:15.457Z,33.40
2023-10-23T06:32:47.428Z,34.90
2023-10-23T06:35:19.390Z,34.60
2023-10-23T06:37:51.579Z,35.30
2023-10-23T06:40:23.704Z,32.30
2023-10-23T06:42:58.858Z,33.10
2023-10-23T06:45:42.561Z,39.30
2023-10-23T06:48:22.802Z,44.30
2023-10-23T06:50:58.046Z,37.20
2023-10-23T06:53:30.527Z,36.50
2023-10-23T06:56:02.292Z,34.10
2023-10-23T06:58:34.252Z,35.80
2023-10-23T07:01:09.980Z,39.80
2023-10-23T07:03:42.290Z,35.60
2023-10-23T07:06:14.414Z,40.30
2023-10-23T07:08:46.497Z,40.30
2023-10-23T07:11:20.422Z,41.40
2023-10-23T07:13:52.147Z,38.50
2023-10-23T07:16:24.210Z,38.20
2023-10-23T07:18:56.662Z,41.70
2023-10-23T07:21:31.280Z,36.10
2023-10-23T07:24:04.972Z,34.10
2023-10-23T07:26:36.937Z,36.50
2023-10-23T07:29:09.699Z,38.20
2023-10-23T07:31:41.587Z,35.10
2023-10-23T07:34:13.696Z,37.10
2023-10-23T07:36:45.554Z,34.00
2023-10-23T07:39:19.469Z,34.40
2023-10-23T07:44:22.261Z,32.20
2023-10-23T07:46:54.143Z,31.20
2023-10-23T07:49:27.037Z,34.20
2023-10-23T07:51:58.937Z,27.90
2023-10-23T07:54:32.424Z,31.50
2023-10-23T07:57:04.356Z,30.80
2023-10-23T07:59:36.327Z,29.70
2023-10-23T08:02:08.363Z,38.10
2023-10-23T08:04:41.498Z,30.30
2023-10-23T08:07:13.518Z,30.70
2023-10-23T08:09:45.512Z,33.80
2023-10-23T08:12:17.641Z,37.90
2023-10-23T08:14:49.482Z,35.40
2023-10-23T08:17:41.396Z,38.90
2023-10-23T08:20:14.577Z,32.60
2023-10-23T08:22:46.439Z,40.50
2023-10-23T08:25:18.465Z,31.70
2023-10-23T08:27:50.630Z,31.90
2023-10-23T08:30:22.627Z,34.40
2023-10-23T08:32:54.696Z,36.20
2023-10-23T08:35:29.305Z,36.70
2023-10-23T08:38:03.949Z,29.30
2023-10-23T08:40:35.784Z,29.00
2023-10-23T08:43:08.539Z,31.70
2023-10-23T08:45:42.199Z,32.30
2023-10-23T08:48:14.418Z,37.00
2023-10-23T08:50:46.759Z,33.10
2023-10-23T08:53:19.249Z,34.40
2023-10-23T08:55:52.763Z,35.30
2023-10-23T08:58:25.006Z,30.10
2023-10-23T09:00:57.084Z,34.80
2023-10-23T09:04:04.209Z,32.20
2023-10-23T09:06:22.138Z,31.30
2023-10-23T09:08:54.255Z,30.40
2023-10-23T09:11:40.790Z,28.60
2023-10-23T09:14:12.952Z,36.70
2023-10-23T09:16:45.086Z,36.30
2023-10-23T09:19:27.387Z,30.10
2023-10-23T09:22:00.278Z,33.40
2023-10-23T09:24:32.312Z,31.10
2023-10-23T09:27:04.610Z,35.10
2023-10-23T09:29:36.663Z,36.80
2023-10-23T09:32:09.571Z,33.40
2023-10-23T09:34:45.832Z,27.50
2023-10-23T09:37:18.150Z,32.60
2023-10-23T09:39:53.058Z,31.50
2023-10-23T09:42:34.479Z,29.60
2023-10-23T09:45:08.044Z,28.50
2023-10-23T09:47:40.091Z,28.90
2023-10-23T09:50:13.831Z,27.00
2023-10-23T09:55:17.001Z,26.60
2023-10-23T09:57:49.534Z,24.00
2023-10-23T10:00:22.402Z,23.50
2023-10-23T10:02:57.084Z,22.90
2023-10-23T10:05:35.460Z,23.60
2023-10-23T10:08:09.528Z,22.80
2023-10-23T10:10:42.130Z,24.10
2023-10-23T10:13:14.827Z,26.60
2023-10-23T10:15:47.347Z,23.30
2023-10-23T10:18:19.780Z,22.80
2023-10-23T10:21:02.255Z,24.20
2023-10-23T10:23:36.454Z,25.50
2023-10-23T10:26:08.737Z,21.50
2023-10-23T10:28:42.880Z,24.00
2023-10-23T10:31:19.896Z,20.50
2023-10-23T10:34:27.699Z,21.40
2023-10-23T10:36:48.902Z,21.80
2023-10-23T10:39:20.834Z,22.70
2023-10-23T10:41:55.072Z,18.40
2023-10-23T10:44:27.308Z,21.00
2023-10-23T10:47:00.660Z,18.80
2023-10-23T10:49:36.456Z,20.20
2023-10-23T10:52:29.953Z,20.30
2023-10-23T10:55:03.466Z,20.60
2023-10-23T10:57:36.456Z,22.30
2023-10-23T11:00:11.023Z,20.70
2023-10-23T11:02:43.068Z,21.20
2023-10-23T11:05:15.882Z,20.60
2023-10-23T11:07:51.501Z,22.40
2023-10-23T11:10:23.715Z,22.30
2023-10-23T11:12:55.667Z,21.00
2023-10-23T11:15:27.746Z,21.60
2023-10-23T11:17:59.743Z,21.60
2023-10-23T11:20:33.408Z,22.30
2023-10-23T11:23:06.153Z,22.50
2023-10-23T11:25:37.899Z,22.80
2023-10-23T11:28:10.081Z,23.60
2023-10-23T11:30:50.129Z,22.60
2023-10-23T11:33:24.113Z,21.40
2023-10-23T11:35:56.883Z,21.30
2023-10-23T11:38:30.301Z,23.20
2023-10-23T11:41:02.217Z,23.50
2023-10-23T11:43:34.772Z,22.30
2023-10-23T11:46:06.802Z,21.70
2023-10-23T11:48:38.685Z,30.60
2023-10-23T11:51:12.149Z,23.20
2023-10-23T11:53:43.960Z,20.80
2023-10-23T11:56:15.719Z,22.00
2023-10-23T11:58:49.422Z,20.10
2023-10-23T12:01:26.077Z,19.20
2023-10-23T12:03:58.157Z,55.60
2023-10-23T12:06:30.226Z,41.40
2023-10-23T12:09:02.428Z,20.40
2023-10-23T12:11:35.129Z,18.20
2023-10-23T12:14:07.324Z,19.00
2023-10-23T12:16:39.590Z,23.00
2023-10-23T12:19:11.606Z,18.90
2023-10-23T12:21:43.406Z,16.30
2023-10-23T12:24:15.227Z,15.80
2023-10-23T12:26:47.401Z,15.80
2023-10-23T12:29:19.263Z,15.10
2023-10-23T12:32:01.938Z,13.60
2023-10-23T12:34:35.807Z,14.80
2023-10-23T12:37:07.834Z,17.20
2023-10-23T12:39:40.188Z,13.10
2023-10-23T12:42:12.200Z,12.50
2023-10-23T12:44:45.993Z,13.20
2023-10-23T12:49:48.610Z,11.60
2023-10-23T12:52:20.528Z,12.50
2023-10-23T12:54:52.273Z,14.60
2023-10-23T12:57:24.111Z,12.40
2023-10-23T12:59:55.988Z,12.80
2023-10-23T13:02:28.087Z,12.90
2023-10-23T13:05:01.319Z,15.70
2023-10-23T13:07:37.010Z,12.30
2023-10-23T13:10:11.631Z,12.90
2023-10-23T13:12:43.484Z,11.30
2023-10-23T13:15:15.475Z,11.80
2023-10-23T13:17:47.574Z,13.30
2023-10-23T13:21:28.108Z,13.00
2023-10-23T13:23:12.840Z,10.10
2023-10-23T13:25:58.015Z,9.50
2023-10-23T13:28:35.478Z,9.70
2023-10-23T13:31:07.336Z,10.40
2023-10-23T13:33:39.674Z,9.50
2023-10-23T13:36:11.879Z,12.30
2023-10-23T13:38:43.814Z,9.60
2023-10-23T13:41:15.790Z,8.80
2023-10-23T13:43:48.190Z,9.40
2023-10-23T13:46:21.465Z,9.90
2023-10-23T13:48:54.241Z,10.30
2023-10-23T13:51:26.394Z,10.20
2023-10-23T13:53:58.206Z,10.20
2023-10-23T13:56:30.032Z,10.90
2023-10-23T13:59:03.244Z,11.00
2023-10-23T14:01:37.529Z,11.40
2023-10-23T14:04:09.959Z,10.10
2023-10-23T14:06:42.121Z,11.80
2023-10-23T14:09:43.934Z,10.90
2023-10-23T14:12:06.488Z,13.90
2023-10-23T14:14:38.758Z,11.80
2023-10-23T14:17:10.976Z,10.70
2023-10-23T14:19:48.592Z,10.80
2023-10-23T14:22:21.179Z,11.00
2023-10-23T14:24:53.104Z,10.20
2023-10-23T14:27:25.066Z,11.00
2023-10-23T14:29:57.036Z,11.30
2023-10-23T14:32:29.199Z,10.70
2023-10-23T14:35:02.044Z,11.00
2023-10-23T14:37:34.028Z,12.90
2023-10-23T14:40:08.973Z,10.00
2023-10-23T14:42:40.955Z,10.60
2023-10-23T14:45:13.907Z,10.80
2023-10-23T14:47:45.996Z,9.60
2023-10-23T14:50:18.196Z,10.00
2023-10-23T14:52:50.823Z,13.50
2023-10-23T14:55:22.831Z,13.00
2023-10-23T14:57:54.804Z,11.70
2023-10-23T15:00:27.022Z,15.60
2023-10-23T15:02:58.939Z,10.10
2023-10-23T15:05:33.063Z,11.40
2023-10-23T15:10:39.682Z,14.60
2023-10-23T15:13:11.941Z,12.70
2023-10-23T15:15:44.158Z,14.80
2023-10-23T15:18:16.045Z,17.80
2023-10-23T15:20:47.941Z,12.70
2023-10-23T15:23:19.798Z,13.80
2023-10-23T15:25:53.692Z,13.30
2023-10-23T15:31:01.063Z,17.30
2023-10-23T15:33:33.266Z,12.60
2023-10-23T15:36:06.410Z,11.80
2023-10-23T15:38:40.112Z,14.40
2023-10-23T15:41:15.437Z,14.10
2023-10-23T15:43:48.759Z,13.90
2023-10-23T15:46:20.741Z,13.50
2023-10-23T15:48:52.973Z,12.80
2023-10-23T15:51:24.800Z,12.50
2023-10-23T15:53:57.149Z,19.90
2023-10-23T15:56:30.194Z,14.60
2023-10-23T15:59:02.154Z,13.30
2023-10-23T16:01:34.005Z,15.50
2023-10-23T16:04:06.480Z,14.70
2023-10-23T16:06:39.264Z,16.70
2023-10-23T16:09:24.540Z,17.60
2023-10-23T16:12:09.739Z,17.00
2023-10-23T16:14:55.836Z,15.70
2023-10-23T16:17:29.353Z,19.60
2023-10-23T16:20:01.165Z,17.70
2023-10-23T16:22:33.021Z,16.10
2023-10-23T16:25:05.901Z,19.10
2023-10-23T16:27:39.177Z,15.70
2023-10-23T16:30:12.134Z,23.90
2023-10-23T16:32:46.254Z,16.80
2023-10-23T16:35:18.431Z,18.60
2023-10-23T16:37:50.243Z,15.00
2023-10-23T16:40:22.259Z,14.90
2023-10-23T16:42:54.209Z,20.10
2023-10-23T16:45:27.332Z,19.20
2023-10-23T16:47:59.420Z,17.40
2023-10-23T16:50:31.340Z,17.20
2023-10-23T16:53:05.128Z,22.80
2023-10-23T16:55:38.226Z,19.00
2023-10-23T16:58:10.372Z,17.70
2023-10-23T17:00:42.234Z,20.30
2023-10-23T17:03:14.211Z,20.60
2023-10-23T17:05:46.644Z,19.00
2023-10-23T17:08:19.501Z,20.50
2023-10-23T17:10:51.369Z,19.30
2023-10-23T17:13:23.310Z,20.10
2023-10-23T17:15:55.138Z,19.40
2023-10-23T17:18:26.934Z,21.90
2023-10-23T17:20:58.817Z,28.40
2023-10-23T17:23:31.156Z,19.20
2023-10-23T17:26:03.314Z,19.40
2023-10-23T17:28:37.364Z,21.30
2023-10-23T17:33:40.318Z,20.00
2023-10-23T17:36:12.278Z,20.20
2023-10-23T17:38:46.841Z,20.30
2023-10-23T17:41:19.009Z,22.10
2023-10-23T17:43:50.893Z,20.50
2023-10-23T17:46:22.756Z,22.90
2023-10-23T17:48:55.907Z,26.50
2023-10-23T17:51:28.476Z,25.60
2023-10-23T17:54:05.637Z,21.70
2023-10-23T17:56:38.016Z,24.30
2023-10-23T17:59:09.891Z,25.80
2023-10-23T18:01:43.901Z,23.50
2023-10-23T18:04:16.144Z,27.20
2023-10-23T18:06:48.615Z,21.60
2023-10-23T18:09:20.502Z,25.10
2023-10-23T18:11:52.414Z,24.60
2023-10-23T18:14:24.263Z,24.90
2023-10-23T18:16:56.149Z,22.60
2023-10-23T18:19:28.224Z,29.30
2023-10-23T18:22:00.364Z,25.20
2023-10-23T18:24:32.375Z,29.20
2023-10-23T18:27:04.337Z,30.70
2023-10-23T18:29:38.165Z,28.10
2023-10-23T18:32:10.228Z,26.50
2023-10-23T18:34:42.911Z,27.10
2023-10-23T18:37:14.718Z,28.90
2023-10-23T18:39:47.075Z,30.70
2023-10-23T18:42:18.989Z,22.60
2023-10-23T18:44:50.926Z,28.10
2023-10-23T18:47:23.280Z,27.50
2023-10-23T18:49:55.407Z,23.40
2023-10-23T18:52:27.292Z,25.70
2023-10-23T18:54:59.194Z,27.70
2023-10-23T18:57:31.138Z,26.30
2023-10-23T19:00:03.026Z,28.70
2023-10-23T19:02:37.271Z,27.70
2023-10-23T19:05:11.813Z,35.80
2023-10-23T19:07:43.619Z,28.40
2023-10-23T19:10:15.995Z,31.70
2023-10-23T19:12:48.143Z,33.90
2023-10-23T19:15:20.025Z,37.10
2023-10-23T19:17:54.890Z,38.80
2023-10-23T19:20:26.977Z,39.00
2023-10-23T19:22:59.294Z,37.40
2023-10-23T19:25:31.102Z,38.70
2023-10-23T19:28:04.911Z,42.50
2023-10-23T19:33:08.576Z,26.30
2023-10-23T19:35:41.964Z,36.90
2023-10-23T19:38:14.737Z,40.20
2023-10-23T19:40:48.945Z,37.10
2023-10-23T19:43:25.163Z,45.90
2023-10-23T19:45:58.286Z,36.50
2023-10-23T19:48:31.324Z,38.60
2023-10-23T19:51:05.363Z,41.70
2023-10-23T19:56:19.953Z,27.80
2023-10-23T19:59:01.608Z,32.60
2023-10-23T20:01:33.522Z,32.30
2023-10-23T20:04:05.960Z,31.60
2023-10-23T20:06:38.399Z,39.00
2023-10-23T20:09:11.101Z,44.50
2023-10-23T20:11:42.965Z,41.70
2023-10-23T20:14:16.911Z,46.80
2023-10-23T20:19:19.562Z,37.30
2023-10-23T20:21:52.944Z,55.40
2023-10-23T20:24:24.731Z,33.20
2023-10-23T20:26:57.137Z,49.00
2023-10-23T20:29:28.990Z,43.30
2023-10-23T20:32:00.948Z,42.50
2023-10-23T20:34:32.980Z,63.80
2023-10-23T20:37:05.062Z,58.00
2023-10-23T20:39:37.072Z,59.40
2023-10-23T20:42:09.126Z,42.30
2023-10-23T20:44:40.834Z,56.90
2023-10-23T20:47:15.761Z,59.30
2023-10-23T20:49:47.985Z,59.80
2023-10-23T20:52:20.061Z,44.60
2023-10-23T20:54:52.306Z,57.30
2023-10-23T20:57:24.166Z,38.50
2023-10-23T20:59:55.908Z,59.10
2023-10-23T21:02:27.903Z,54.80
2023-10-23T21:05:00.427Z,60.90
2023-10-23T21:07:32.275Z,43.80
2023-10-23T21:10:04.537Z,41.10
2023-10-23T21:12:36.652Z,57.50
2023-10-23T21:15:10.241Z,57.60
2023-10-23T21:17:42.422Z,54.50
2023-10-23T21:20:16.450Z,56.40
2023-10-23T21:22:48.957Z,55.00
2023-10-23T21:25:23.978Z,62.20
2023-10-23T21:27:58.263Z,42.10
2023-10-23T21:30:30.049Z,60.60
2023-10-23T21:33:04.103Z,51.70
2023-10-23T21:38:06.332Z,30.80
2023-10-23T21:40:38.322Z,49.50
2023-10-23T21:43:10.168Z,55.00
2023-10-23T21:45:42.494Z,52.50
2023-10-23T21:48:15.333Z,49.40
2023-10-23T21:50:48.517Z,64.50
2023-10-23T21:53:21.569Z,34.60
2023-10-23T21:55:56.175Z,53.80
2023-10-23T21:59:04.985Z,36.80
2023-10-23T22:01:25.805Z,64.40
2023-10-23T22:03:58.639Z,42.40
2023-10-23T22:06:31.432Z,46.60
2023-10-23T22:09:05.385Z,64.90
2023-10-23T22:11:38.028Z,33.50
2023-10-23T22:14:11.554Z,114.90
2023-10-23T22:16:43.438Z,33.70
2023-10-23T22:19:15.736Z,28.60
2023-10-23T22:21:47.590Z,58.50
2023-10-23T22:24:19.410Z,43.90
2023-10-23T22:26:51.610Z,52.00
2023-10-23T22:29:23.386Z,54.80
2023-10-23T22:31:56.558Z,40.00
2023-10-23T22:34:28.864Z,47.00
2023-10-23T22:37:54.814Z,61.10
2023-10-23T22:39:53.057Z,48.40
2023-10-23T22:42:24.910Z,44.80
2023-10-23T22:44:58.372Z,48.50
2023-10-23T22:47:30.207Z,43.80
2023-10-23T22:50:03.535Z,45.40
2023-10-23T22:52:37.729Z,60.90
2023-10-23T22:55:13.553Z,66.80
2023-10-23T22:57:47.896Z,51.30
2023-10-23T23:00:21.412Z,48.80
2023-10-23T23:02:57.114Z,62.10
2023-10-23T23:05:30.342Z,51.00
2023-10-23T23:08:03.461Z,55.50
2023-10-23T23:10:36.735Z,54.10
2023-10-23T23:13:09.474Z,51.30
2023-10-23T23:15:42.538Z,46.60
2023-10-23T23:18:16.690Z,48.90
2023-10-23T23:20:51.918Z,46.20
2023-10-23T23:23:23.895Z,46.80
2023-10-23T23:25:56.578Z,57.80
2023-10-23T23:28:28.893Z,35.30
2023-10-23T23:31:00.796Z,43.50
2023-10-23T23:33:33.132Z,44.10
2023-10-23T23:36:05.137Z,42.80
2023-10-23T23:38:38.370Z,41.30
2023-10-23T23:41:10.414Z,76.00
2023-10-23T23:43:42.300Z,55.10
2023-10-23T23:46:14.241Z,58.20
2023-10-23T23:48:46.178Z,67.90
2023-10-23T23:51:17.915Z,37.30
2023-10-23T23:53:49.685Z,41.00
2023-10-23T23:56:21.904Z,64.00
2023-10-23T23:58:53.741Z,89.60
